createdAt,value
2022-10-16T00:01:44.769Z,15.63
2022-10-16T00:04:11.364Z,15.63
2022-10-16T00:06:37.880Z,15.61
2022-10-16T00:09:04.345Z,15.60
2022-10-16T00:11:37.606Z,15.60
2022-10-16T00:14:08.245Z,15.58
2022-10-16T00:16:37.515Z,15.58
2022-10-16T00:19:04.611Z,15.58
2022-10-16T00:21:32.426Z,15.57
2022-10-16T00:24:07.502Z,15.56
2022-10-16T00:26:35.721Z,15.57
2022-10-16T00:29:02.929Z,15.60
2022-10-16T00:31:30.549Z,15.61
2022-10-16T00:33:57.081Z,15.62
2022-10-16T00:36:28.277Z,15.61
2022-10-16T00:38:57.345Z,15.61
2022-10-16T00:41:29.918Z,15.58
2022-10-16T00:44:02.408Z,15.57
2022-10-16T00:46:36.126Z,15.57
2022-10-16T00:49:05.503Z,15.57
2022-10-16T00:51:44.424Z,15.61
2022-10-16T00:54:15.210Z,15.62
2022-10-16T00:56:42.946Z,15.65
2022-10-16T00:59:17.584Z,15.65
2022-10-16T01:01:43.942Z,15.65
2022-10-16T01:04:10.559Z,15.64
2022-10-16T01:07:02.842Z,15.61
2022-10-16T01:09:47.261Z,15.60
2022-10-16T01:12:38.727Z,15.59
2022-10-16T01:15:17.553Z,15.57
2022-10-16T01:18:08.435Z,15.56
2022-10-16T01:20:43.780Z,15.54
2022-10-16T01:23:15.940Z,15.54
2022-10-16T01:26:01.881Z,15.53
2022-10-16T01:28:37.654Z,15.54
2022-10-16T01:31:04.248Z,15.55
2022-10-16T01:33:41.044Z,15.57
2022-10-16T01:36:14.286Z,15.56
2022-10-16T01:38:42.020Z,15.59
2022-10-16T01:41:16.429Z,15.58
2022-10-16T01:44:14.782Z,15.60
2022-10-16T01:46:44.473Z,15.61
2022-10-16T01:49:12.458Z,15.60
2022-10-16T01:51:44.471Z,15.61
2022-10-16T01:54:15.128Z,15.63
2022-10-16T01:56:43.055Z,15.63
2022-10-16T01:59:17.759Z,15.63
2022-10-16T02:01:53.806Z,15.62
2022-10-16T02:04:29.730Z,15.61
2022-10-16T02:06:58.754Z,15.62
2022-10-16T02:09:25.411Z,15.60
2022-10-16T02:11:57.585Z,15.60
2022-10-16T02:14:25.732Z,15.59
2022-10-16T02:16:52.483Z,15.58
2022-10-16T02:19:21.294Z,15.57
2022-10-16T02:21:58.557Z,15.58
2022-10-16T02:24:38.268Z,15.57
2022-10-16T02:27:18.351Z,15.57
2022-10-16T02:29:51.291Z,15.57
2022-10-16T02:32:25.845Z,15.56
2022-10-16T02:34:53.125Z,15.57
2022-10-16T02:37:22.322Z,15.58
2022-10-16T02:39:48.965Z,15.56
2022-10-16T02:42:16.592Z,15.56
2022-10-16T02:44:42.988Z,15.53
2022-10-16T02:47:13.768Z,15.51
2022-10-16T02:49:40.286Z,15.52
2022-10-16T02:52:06.760Z,15.46
2022-10-16T02:54:35.457Z,15.47
2022-10-16T02:57:01.876Z,15.39
2022-10-16T02:59:28.243Z,15.37
2022-10-16T03:01:54.652Z,15.34
2022-10-16T03:04:21.036Z,15.33
2022-10-16T03:06:47.481Z,15.35
2022-10-16T03:09:13.954Z,15.36
2022-10-16T03:11:40.319Z,15.37
2022-10-16T03:14:09.163Z,15.37
2022-10-16T03:16:35.568Z,15.43
2022-10-16T03:19:02.256Z,15.43
2022-10-16T03:21:28.626Z,15.42
2022-10-16T03:23:55.023Z,15.43
2022-10-16T03:26:21.476Z,15.40
2022-10-16T03:28:47.992Z,15.40
2022-10-16T03:31:19.253Z,15.38
2022-10-16T03:33:48.092Z,15.37
2022-10-16T03:36:14.511Z,15.36
2022-10-16T03:38:40.882Z,15.33
2022-10-16T03:41:08.702Z,15.32
2022-10-16T03:43:35.274Z,15.35
2022-10-16T03:46:01.631Z,15.32
2022-10-16T03:48:28.856Z,15.30
2022-10-16T03:50:55.835Z,15.33
2022-10-16T03:53:22.299Z,15.33
2022-10-16T03:55:48.880Z,15.31
2022-10-16T03:58:17.971Z,15.35
2022-10-16T04:00:45.968Z,15.37
2022-10-16T04:03:12.825Z,15.30
2022-10-16T04:05:39.817Z,15.34
2022-10-16T04:08:06.613Z,15.32
2022-10-16T04:10:33.097Z,15.33
2022-10-16T04:12:59.467Z,15.35
2022-10-16T04:15:26.752Z,15.35
2022-10-16T04:17:53.457Z,15.35
2022-10-16T04:20:19.910Z,15.37
2022-10-16T04:22:46.387Z,15.36
2022-10-16T04:25:17.493Z,15.35
2022-10-16T04:27:46.069Z,15.35
2022-10-16T04:30:13.876Z,15.33
2022-10-16T04:32:40.615Z,15.32
2022-10-16T04:35:07.811Z,15.29
2022-10-16T04:37:37.070Z,15.30
2022-10-16T04:40:03.831Z,15.30
2022-10-16T04:42:30.238Z,15.27
2022-10-16T04:44:56.773Z,15.27
2022-10-16T04:47:25.793Z,15.25
2022-10-16T04:49:52.386Z,15.23
2022-10-16T04:52:19.879Z,15.22
2022-10-16T04:54:51.339Z,15.19
2022-10-16T04:57:18.416Z,15.17
2022-10-16T04:59:44.755Z,15.17
2022-10-16T05:02:16.388Z,15.15
2022-10-16T05:04:42.836Z,15.14
2022-10-16T05:07:11.710Z,15.17
2022-10-16T05:09:38.188Z,15.24
2022-10-16T05:12:07.048Z,15.18
2022-10-16T05:14:33.514Z,15.20
2022-10-16T05:17:03.300Z,15.14
2022-10-16T05:19:32.254Z,15.15
2022-10-16T05:21:58.708Z,15.13
2022-10-16T05:24:25.156Z,15.12
2022-10-16T05:26:51.848Z,15.17
2022-10-16T05:29:18.417Z,15.19
2022-10-16T05:31:44.933Z,15.17
2022-10-16T05:34:11.410Z,15.23
2022-10-16T05:36:37.868Z,15.22
2022-10-16T05:39:07.901Z,15.25
2022-10-16T05:41:34.281Z,15.25
2022-10-16T05:44:00.666Z,15.30
2022-10-16T05:46:27.150Z,15.25
2022-10-16T05:48:54.258Z,15.22
2022-10-16T05:51:20.790Z,15.22
2022-10-16T05:53:47.289Z,15.19
2022-10-16T05:56:13.816Z,15.23
2022-10-16T05:58:41.448Z,15.21
2022-10-16T06:01:18.435Z,15.24
2022-10-16T06:03:45.663Z,15.26
2022-10-16T06:06:26.847Z,15.25
2022-10-16T06:09:00.637Z,15.26
2022-10-16T06:11:33.022Z,15.26
2022-10-16T06:14:02.827Z,15.28
2022-10-16T06:16:32.028Z,15.30
2022-10-16T06:19:05.241Z,15.39
2022-10-16T06:21:31.757Z,15.43
2022-10-16T06:23:59.483Z,15.46
2022-10-16T06:26:28.751Z,15.48
2022-10-16T06:28:57.492Z,15.52
2022-10-16T06:31:28.337Z,15.51
2022-10-16T06:33:55.801Z,15.50
2022-10-16T06:36:22.586Z,15.51
2022-10-16T06:38:49.085Z,15.54
2022-10-16T06:41:18.564Z,15.55
2022-10-16T06:43:46.300Z,15.55
2022-10-16T06:46:15.255Z,15.57
2022-10-16T06:48:42.032Z,15.58
2022-10-16T06:51:16.982Z,15.58
2022-10-16T06:54:02.850Z,15.59
2022-10-16T06:56:32.045Z,15.61
2022-10-16T06:59:01.219Z,15.65
2022-10-16T07:01:28.580Z,15.66
2022-10-16T07:04:00.634Z,15.71
2022-10-16T07:06:27.364Z,15.71
2022-10-16T07:08:54.051Z,15.78
2022-10-16T07:11:24.837Z,15.81
2022-10-16T07:13:55.072Z,15.85
2022-10-16T07:16:25.427Z,15.92
2022-10-16T07:18:55.345Z,16.00
2022-10-16T07:21:23.690Z,16.06
2022-10-16T07:23:57.300Z,16.12
2022-10-16T07:26:25.418Z,16.20
2022-10-16T07:28:54.236Z,16.30
2022-10-16T07:31:21.742Z,16.36
2022-10-16T07:33:49.081Z,16.49
2022-10-16T07:36:20.486Z,16.54
2022-10-16T07:38:47.508Z,16.56
2022-10-16T07:41:16.304Z,16.62
2022-10-16T07:43:50.521Z,16.63
2022-10-16T07:46:18.556Z,16.67
2022-10-16T07:48:48.996Z,16.69
2022-10-16T07:51:21.343Z,16.72
2022-10-16T07:53:48.548Z,16.77
2022-10-16T07:56:16.397Z,16.88
2022-10-16T07:58:45.200Z,17.03
2022-10-16T08:01:17.164Z,17.08
2022-10-16T08:03:48.540Z,17.07
2022-10-16T08:06:20.771Z,17.04
2022-10-16T08:08:50.339Z,17.10
2022-10-16T08:11:17.046Z,17.02
2022-10-16T08:13:43.549Z,17.20
2022-10-16T08:16:10.867Z,17.16
2022-10-16T08:18:39.373Z,17.09
2022-10-16T08:21:17.140Z,17.01
2022-10-16T08:23:50.094Z,17.02
2022-10-16T08:26:17.986Z,16.92
2022-10-16T08:28:44.378Z,16.98
2022-10-16T08:31:13.875Z,17.06
2022-10-16T08:33:42.730Z,16.99
2022-10-16T08:36:11.361Z,17.10
2022-10-16T08:38:40.689Z,17.26
2022-10-16T08:41:15.848Z,17.35
2022-10-16T08:43:55.902Z,17.43
2022-10-16T08:46:50.606Z,17.54
2022-10-16T08:49:18.080Z,17.46
2022-10-16T08:51:46.785Z,17.57
2022-10-16T08:54:41.525Z,17.71
2022-10-16T08:57:12.550Z,17.80
2022-10-16T08:59:39.075Z,17.85
2022-10-16T09:02:30.806Z,17.88
2022-10-16T09:05:09.395Z,18.05
2022-10-16T09:07:54.122Z,18.15
2022-10-16T09:10:47.621Z,18.08
2022-10-16T09:13:56.446Z,18.18
2022-10-16T09:16:39.829Z,18.14
2022-10-16T09:19:09.175Z,18.06
2022-10-16T09:21:39.323Z,18.00
2022-10-16T09:24:16.437Z,18.14
2022-10-16T09:26:43.955Z,18.37
2022-10-16T09:29:15.298Z,18.45
2022-10-16T09:31:42.641Z,18.42
2022-10-16T09:34:26.094Z,18.47
2022-10-16T09:36:52.773Z,18.38
2022-10-16T09:39:19.179Z,18.34
2022-10-16T09:41:46.493Z,18.33
2022-10-16T09:44:51.428Z,18.38
2022-10-16T09:47:22.337Z,18.47
2022-10-16T09:50:21.531Z,18.47
2022-10-16T09:52:47.959Z,18.56
2022-10-16T09:55:17.260Z,18.63
2022-10-16T09:57:53.903Z,18.68
2022-10-16T10:00:23.802Z,18.73
2022-10-16T10:05:26.005Z,18.72
2022-10-16T10:08:01.066Z,18.79
2022-10-16T10:10:30.208Z,18.89
2022-10-16T10:12:57.587Z,18.93
2022-10-16T10:15:25.489Z,18.93
2022-10-16T10:17:56.842Z,18.85
2022-10-16T10:20:29.227Z,18.89
2022-10-16T10:22:56.964Z,18.77
2022-10-16T10:25:38.684Z,18.77
2022-10-16T10:28:14.233Z,18.79
2022-10-16T10:30:53.249Z,18.86
2022-10-16T10:33:41.113Z,19.01
2022-10-16T10:36:22.190Z,18.92
2022-10-16T10:38:57.648Z,19.03
2022-10-16T10:41:51.806Z,19.17
2022-10-16T10:44:58.341Z,19.11
2022-10-16T10:47:30.618Z,19.28
2022-10-16T10:50:02.940Z,19.40
2022-10-16T10:52:53.169Z,19.45
2022-10-16T10:55:34.498Z,19.35
2022-10-16T10:58:35.080Z,19.44
2022-10-16T11:01:14.340Z,19.53
2022-10-16T11:03:58.350Z,19.53
2022-10-16T11:06:40.500Z,19.62
2022-10-16T11:09:16.197Z,19.57
2022-10-16T11:11:47.040Z,19.64
2022-10-16T11:14:32.868Z,19.75
2022-10-16T11:17:06.039Z,19.76
2022-10-16T11:19:41.199Z,19.66
2022-10-16T11:22:19.786Z,19.62
2022-10-16T11:24:55.080Z,19.65
2022-10-16T11:27:28.845Z,19.64
2022-10-16T11:30:01.747Z,19.60
2022-10-16T11:32:35.384Z,19.65
2022-10-16T11:35:13.527Z,19.54
2022-10-16T11:37:47.547Z,19.60
2022-10-16T11:40:26.391Z,19.71
2022-10-16T11:43:02.283Z,19.84
2022-10-16T11:45:45.140Z,19.72
2022-10-16T11:48:39.922Z,19.70
2022-10-16T11:51:16.922Z,19.64
2022-10-16T11:53:55.477Z,19.74
2022-10-16T11:56:22.499Z,19.89
2022-10-16T11:59:22.190Z,19.98
2022-10-16T12:01:58.013Z,20.20
2022-10-16T12:04:50.909Z,20.33
2022-10-16T12:07:25.798Z,20.38
2022-10-16T12:09:52.332Z,20.44
2022-10-16T12:12:36.859Z,20.43
2022-10-16T12:15:54.200Z,20.35
2022-10-16T12:18:26.029Z,20.34
2022-10-16T12:21:00.126Z,20.38
2022-10-16T12:23:27.127Z,20.39
2022-10-16T12:25:59.682Z,20.43
2022-10-16T12:28:38.370Z,20.48
2022-10-16T12:31:07.690Z,20.47
2022-10-16T12:33:36.319Z,20.48
2022-10-16T12:36:14.520Z,20.60
2022-10-16T12:38:52.458Z,20.68
2022-10-16T12:41:28.518Z,20.60
2022-10-16T12:43:55.353Z,20.68
2022-10-16T12:46:39.125Z,20.74
2022-10-16T12:49:25.459Z,20.69
2022-10-16T12:51:52.406Z,20.64
2022-10-16T12:54:31.337Z,20.60
2022-10-16T12:57:03.920Z,20.76
2022-10-16T12:59:45.927Z,20.74
2022-10-16T13:02:39.955Z,20.70
2022-10-16T13:05:27.732Z,20.84
2022-10-16T13:08:00.905Z,20.79
2022-10-16T13:10:52.260Z,20.74
2022-10-16T13:14:01.022Z,20.77
2022-10-16T13:16:38.867Z,20.68
2022-10-16T13:19:51.480Z,20.56
2022-10-16T13:22:45.516Z,20.46
2022-10-16T13:25:30.939Z,20.35
2022-10-16T13:28:05.091Z,20.28
2022-10-16T13:30:37.304Z,20.07
2022-10-16T13:33:21.437Z,20.02
2022-10-16T13:35:58.587Z,19.93
2022-10-16T13:38:31.249Z,19.83
2022-10-16T13:41:03.781Z,19.81
2022-10-16T13:43:41.536Z,19.79
2022-10-16T13:46:22.193Z,19.78
2022-10-16T13:49:06.353Z,19.75
2022-10-16T13:51:33.993Z,19.71
2022-10-16T13:54:00.544Z,19.66
2022-10-16T13:56:30.093Z,19.66
2022-10-16T13:59:23.408Z,19.74
2022-10-16T14:01:55.379Z,19.73
2022-10-16T14:04:22.520Z,19.73
2022-10-16T14:06:52.653Z,19.68
2022-10-16T14:09:18.970Z,19.59
2022-10-16T14:11:59.768Z,19.52
2022-10-16T14:14:35.145Z,19.54
2022-10-16T14:17:01.596Z,19.49
2022-10-16T14:19:30.628Z,19.50
2022-10-16T14:22:00.802Z,19.45
2022-10-16T14:24:31.776Z,19.40
2022-10-16T14:26:59.276Z,19.37
2022-10-16T14:29:27.963Z,19.36
2022-10-16T14:32:09.616Z,19.28
2022-10-16T14:34:38.368Z,19.26
2022-10-16T14:37:28.754Z,19.23
2022-10-16T14:39:56.557Z,19.24
2022-10-16T14:42:25.968Z,19.18
2022-10-16T14:44:54.659Z,19.14
2022-10-16T14:47:27.760Z,19.11
2022-10-16T14:49:57.119Z,19.21
2022-10-16T14:52:23.547Z,19.18
2022-10-16T14:54:50.600Z,19.22
2022-10-16T14:57:20.372Z,19.25
2022-10-16T14:59:48.318Z,19.29
2022-10-16T15:02:17.708Z,19.33
2022-10-16T15:04:49.415Z,19.40
2022-10-16T15:07:15.956Z,19.44
2022-10-16T15:09:46.580Z,19.50
2022-10-16T15:12:15.833Z,19.56
2022-10-16T15:14:42.183Z,19.55
2022-10-16T15:17:11.898Z,19.56
2022-10-16T15:19:38.386Z,19.52
2022-10-16T15:22:04.909Z,19.47
2022-10-16T15:24:31.333Z,19.42
2022-10-16T15:26:57.804Z,19.37
2022-10-16T15:29:24.234Z,19.29
2022-10-16T15:31:53.331Z,19.19
2022-10-16T15:34:22.944Z,19.10
2022-10-16T15:36:52.054Z,18.99
2022-10-16T15:39:23.530Z,18.96
2022-10-16T15:41:51.956Z,18.89
2022-10-16T15:44:19.088Z,18.82
2022-10-16T15:46:45.505Z,18.78
2022-10-16T15:49:12.872Z,18.75
2022-10-16T15:51:42.624Z,18.70
2022-10-16T15:54:10.213Z,18.66
2022-10-16T15:56:38.099Z,18.60
2022-10-16T15:59:06.169Z,18.57
2022-10-16T16:01:36.810Z,18.53
2022-10-16T16:04:10.875Z,18.51
2022-10-16T16:06:48.784Z,18.46
2022-10-16T16:09:15.342Z,18.42
2022-10-16T16:11:42.223Z,18.35
2022-10-16T16:14:12.919Z,18.27
2022-10-16T16:16:44.315Z,18.18
2022-10-16T16:19:13.374Z,18.07
2022-10-16T16:21:39.800Z,18.02
2022-10-16T16:24:09.510Z,17.89
2022-10-16T16:26:40.243Z,17.85
2022-10-16T16:29:07.151Z,17.76
2022-10-16T16:31:34.421Z,17.64
2022-10-16T16:34:01.126Z,17.57
2022-10-16T16:36:27.559Z,17.51
2022-10-16T16:38:53.982Z,17.43
2022-10-16T16:41:23.525Z,17.34
2022-10-16T16:43:52.482Z,17.27
2022-10-16T16:46:19.475Z,17.25
2022-10-16T16:48:46.697Z,17.17
2022-10-16T16:51:20.260Z,17.11
2022-10-16T16:53:51.754Z,17.03
2022-10-16T16:56:19.841Z,16.95
2022-10-16T16:58:47.457Z,16.87
2022-10-16T17:01:21.724Z,16.83
2022-10-16T17:03:50.915Z,16.75
2022-10-16T17:06:20.614Z,16.67
2022-10-16T17:08:48.641Z,16.61
2022-10-16T17:11:22.689Z,16.55
2022-10-16T17:13:52.451Z,16.48
2022-10-16T17:16:24.629Z,16.40
2022-10-16T17:18:51.055Z,16.34
2022-10-16T17:21:17.479Z,16.28
2022-10-16T17:23:43.938Z,16.23
2022-10-16T17:26:16.240Z,16.21
2022-10-16T17:28:46.099Z,16.19
2022-10-16T17:31:12.520Z,16.17
2022-10-16T17:33:39.330Z,16.19
2022-10-16T17:36:06.700Z,16.26
2022-10-16T17:38:35.401Z,16.18
2022-10-16T17:41:31.840Z,16.08
2022-10-16T17:44:00.499Z,16.06
2022-10-16T17:46:27.129Z,16.00
2022-10-16T17:48:55.700Z,15.95
2022-10-16T17:51:29.855Z,15.87
2022-10-16T17:53:59.666Z,15.85
2022-10-16T17:56:29.644Z,15.79
2022-10-16T17:59:00.063Z,15.75
2022-10-16T18:01:29.944Z,15.74
2022-10-16T18:03:59.901Z,15.70
2022-10-16T18:06:27.163Z,15.66
2022-10-16T18:08:55.309Z,15.61
2022-10-16T18:11:22.458Z,15.58
2022-10-16T18:13:54.300Z,15.56
2022-10-16T18:16:23.433Z,15.48
2022-10-16T18:18:50.273Z,15.45
2022-10-16T18:21:18.903Z,15.42
2022-10-16T18:23:52.393Z,15.38
2022-10-16T18:26:21.140Z,15.36
2022-10-16T18:28:47.696Z,15.33
2022-10-16T18:31:16.583Z,15.31
2022-10-16T18:33:50.544Z,15.24
2022-10-16T18:36:23.276Z,15.22
2022-10-16T18:38:52.553Z,15.21
2022-10-16T18:41:19.256Z,15.17
2022-10-16T18:43:46.079Z,15.20
2022-10-16T18:46:24.158Z,15.14
2022-10-16T18:48:52.092Z,15.12
2022-10-16T18:51:33.028Z,15.09
2022-10-16T18:54:07.086Z,15.09
2022-10-16T18:56:33.665Z,15.06
2022-10-16T18:59:04.587Z,15.07
2022-10-16T19:02:08.681Z,15.00
2022-10-16T19:05:15.619Z,14.97
2022-10-16T19:08:19.999Z,14.99
2022-10-16T19:11:23.952Z,14.97
2022-10-16T19:14:30.128Z,14.95
2022-10-16T19:17:34.243Z,15.00
2022-10-16T19:20:38.486Z,14.97
2022-10-16T19:23:42.494Z,14.99
2022-10-16T19:26:46.634Z,15.08
2022-10-16T19:29:50.396Z,15.05
2022-10-16T19:32:54.238Z,15.02
2022-10-16T19:35:58.577Z,15.07
2022-10-16T19:39:02.527Z,15.07
2022-10-16T19:42:06.392Z,15.06
2022-10-16T19:45:10.464Z,15.02
2022-10-16T19:48:14.889Z,15.04
2022-10-16T19:51:18.941Z,15.06
2022-10-16T19:54:22.983Z,14.99
2022-10-16T19:57:27.036Z,14.96
2022-10-16T20:00:05.648Z,14.93
2022-10-16T20:02:35.693Z,14.93
2022-10-16T20:05:02.222Z,14.90
2022-10-16T20:07:32.662Z,14.90
2022-10-16T20:10:03.797Z,15.26
2022-10-16T20:12:30.208Z,15.17
2022-10-16T20:14:56.636Z,15.04
2022-10-16T20:17:26.041Z,15.17
2022-10-16T20:19:52.717Z,15.13
2022-10-16T20:22:19.266Z,15.02
2022-10-16T20:24:46.060Z,14.95
2022-10-16T20:27:12.460Z,14.91
2022-10-16T20:29:38.882Z,14.87
2022-10-16T20:32:08.404Z,14.83
2022-10-16T20:34:34.812Z,14.80
2022-10-16T20:37:01.168Z,14.76
2022-10-16T20:39:29.860Z,14.72
2022-10-16T20:41:56.300Z,14.66
2022-10-16T20:44:22.726Z,14.62
2022-10-16T20:46:49.277Z,14.57
2022-10-16T20:49:28.775Z,14.52
2022-10-16T20:52:02.467Z,14.49
2022-10-16T20:54:28.901Z,14.48
2022-10-16T20:56:57.882Z,14.48
2022-10-16T20:59:25.331Z,14.48
2022-10-16T21:01:56.638Z,14.51
2022-10-16T21:04:23.295Z,14.52
2022-10-16T21:06:52.116Z,14.60
2022-10-16T21:09:18.585Z,14.52
2022-10-16T21:11:47.381Z,14.47
2022-10-16T21:14:16.350Z,14.49
2022-10-16T21:16:43.009Z,14.45
2022-10-16T21:19:09.450Z,14.46
2022-10-16T21:21:38.726Z,14.41
2022-10-16T21:24:06.332Z,14.47
2022-10-16T21:26:35.216Z,14.39
2022-10-16T21:29:06.566Z,14.34
2022-10-16T21:31:37.251Z,14.32
2022-10-16T21:34:04.153Z,14.30
2022-10-16T21:36:33.317Z,14.26
2022-10-16T21:39:06.223Z,14.22
2022-10-16T21:41:36.047Z,14.20
2022-10-16T21:44:03.437Z,14.18
2022-10-16T21:46:31.912Z,14.16
2022-10-16T21:49:05.911Z,14.17
2022-10-16T21:51:35.375Z,14.17
2022-10-16T21:54:08.251Z,14.24
2022-10-16T21:56:36.803Z,14.15
2022-10-16T21:59:03.569Z,14.23
2022-10-16T22:01:31.026Z,14.24
2022-10-16T22:03:57.948Z,14.32
2022-10-16T22:06:28.025Z,14.26
2022-10-16T22:08:59.508Z,14.25
2022-10-16T22:11:28.910Z,14.26
2022-10-16T22:13:57.940Z,14.31
2022-10-16T22:16:26.227Z,14.25
2022-10-16T22:18:58.240Z,14.27
2022-10-16T22:21:24.545Z,14.23
2022-10-16T22:23:53.370Z,14.33
2022-10-16T22:26:19.851Z,14.67
2022-10-16T22:28:46.362Z,14.63
2022-10-16T22:31:14.201Z,14.71
2022-10-16T22:33:43.679Z,14.89
2022-10-16T22:36:14.791Z,14.85
2022-10-16T22:38:41.926Z,14.86
2022-10-16T22:41:11.516Z,14.86
2022-10-16T22:43:41.311Z,14.85
2022-10-16T22:46:09.692Z,14.80
2022-10-16T22:48:36.778Z,14.80
2022-10-16T22:51:04.873Z,14.85
2022-10-16T22:53:31.682Z,14.84
2022-10-16T22:55:58.084Z,14.80
2022-10-16T22:58:28.094Z,14.80
2022-10-16T23:00:54.686Z,14.82
2022-10-16T23:03:21.399Z,14.80
2022-10-16T23:05:47.886Z,14.78
2022-10-16T23:08:14.467Z,14.77
2022-10-16T23:10:43.259Z,14.73
2022-10-16T23:13:09.856Z,14.74
2022-10-16T23:15:43.745Z,14.72
2022-10-16T23:18:11.102Z,14.74
2022-10-16T23:20:40.694Z,14.76
2022-10-16T23:23:07.848Z,14.81
2022-10-16T23:25:37.355Z,14.86
2022-10-16T23:28:04.617Z,14.95
2022-10-16T23:30:31.255Z,14.92
2022-10-16T23:33:00.168Z,14.90
2022-10-16T23:35:28.753Z,14.99
2022-10-16T23:37:55.160Z,14.99
2022-10-16T23:40:21.604Z,14.97
2022-10-16T23:42:52.856Z,14.97
2022-10-16T23:45:19.237Z,15.05
2022-10-16T23:47:45.733Z,15.00
2022-10-16T23:50:14.719Z,15.07
2022-10-16T23:52:41.286Z,15.03
2022-10-16T23:55:08.141Z,15.00
2022-10-16T23:57:34.592Z,15.00
